createdAt,value
2024-02-27T00:00:48.072Z,101121.91
2024-02-27T00:03:35.432Z,101113.03
2024-02-27T00:06:22.981Z,101115.13
2024-02-27T00:09:14.556Z,101114.41
2024-02-27T00:12:01.954Z,101122.56
2024-02-27T00:14:49.272Z,101127.94
2024-02-27T00:17:36.653Z,101122.41
2024-02-27T00:20:23.887Z,101125.03
2024-02-27T00:23:13.322Z,101124.13
2024-02-27T00:26:00.948Z,101121.44
2024-02-27T00:28:48.102Z,101122.41
2024-02-27T00:31:35.250Z,101126.22
2024-02-27T00:34:22.488Z,101134.53
2024-02-27T00:37:09.720Z,101131.16
2024-02-27T00:39:57.772Z,101144.59
2024-02-27T00:42:45.584Z,101144.75
2024-02-27T00:45:32.973Z,101143.19
2024-02-27T00:48:20.307Z,101143.19
2024-02-27T00:51:07.530Z,101136.25
2024-02-27T00:53:54.863Z,101127.56
2024-02-27T00:56:42.210Z,101149.78
2024-02-27T00:59:29.427Z,101148.75
2024-02-27T01:02:16.601Z,101145.09
2024-02-27T01:05:05.024Z,101152.94
2024-02-27T01:07:52.274Z,101142.00
2024-02-27T01:10:39.464Z,101149.81
2024-02-27T01:13:27.508Z,101152.16
2024-02-27T01:16:14.702Z,101148.63
2024-02-27T01:19:02.012Z,101150.44
2024-02-27T01:21:49.359Z,101154.94
2024-02-27T01:24:37.004Z,101150.78
2024-02-27T01:27:24.988Z,101160.75
2024-02-27T01:30:12.696Z,101169.78
2024-02-27T01:33:00.258Z,101169.09
2024-02-27T01:35:48.942Z,101164.72
2024-02-27T01:38:36.266Z,101180.88
2024-02-27T01:41:23.503Z,101169.94
2024-02-27T01:44:10.699Z,101173.41
2024-02-27T01:46:59.899Z,101163.59
2024-02-27T01:49:49.434Z,101168.03
2024-02-27T01:52:36.782Z,101168.13
2024-02-27T01:55:23.995Z,101166.47
2024-02-27T01:58:13.116Z,101164.72
2024-02-27T02:01:03.981Z,101176.03
2024-02-27T02:03:53.427Z,101180.56
2024-02-27T02:06:42.890Z,101188.63
2024-02-27T02:09:30.125Z,101174.53
2024-02-27T02:12:17.516Z,101178.97
2024-02-27T02:15:06.224Z,101182.63
2024-02-27T02:17:54.025Z,101184.34
2024-02-27T02:20:41.197Z,101194.16
2024-02-27T02:23:30.337Z,101198.56
2024-02-27T02:26:19.599Z,101200.31
2024-02-27T02:29:07.973Z,101207.28
2024-02-27T02:31:55.152Z,101209.03
2024-02-27T02:34:42.365Z,101213.28
2024-02-27T02:37:30.554Z,101209.72
2024-02-27T02:40:20.939Z,101223.13
2024-02-27T02:43:08.114Z,101223.91
2024-02-27T02:45:55.278Z,101230.06
2024-02-27T02:48:42.540Z,101225.63
2024-02-27T02:51:33.070Z,101229.34
2024-02-27T02:54:20.274Z,101227.53
2024-02-27T02:57:07.459Z,101234.75
2024-02-27T02:59:55.666Z,101232.13
2024-02-27T03:02:42.853Z,101241.13
2024-02-27T03:05:30.038Z,101241.13
2024-02-27T03:08:17.161Z,101239.25
2024-02-27T03:11:05.902Z,101235.75
2024-02-27T03:13:53.209Z,101236.88
2024-02-27T03:16:40.329Z,101241.47
2024-02-27T03:19:28.258Z,101237.22
2024-02-27T03:22:15.608Z,101221.63
2024-02-27T03:25:06.821Z,101229.38
2024-02-27T03:27:54.081Z,101234.31
2024-02-27T03:30:42.624Z,101236.03
2024-02-27T03:33:30.067Z,101235.25
2024-02-27T03:36:17.535Z,101233.66
2024-02-27T03:39:05.991Z,101240.88
2024-02-27T03:41:53.247Z,101225.22
2024-02-27T03:44:46.840Z,101231.38
2024-02-27T03:47:34.084Z,101228.69
2024-02-27T03:50:21.330Z,101213.13
2024-02-27T03:53:08.524Z,101218.72
2024-02-27T03:55:55.824Z,101226.97
2024-02-27T03:58:43.017Z,101224.75
2024-02-27T04:01:30.340Z,101217.22
2024-02-27T04:04:17.649Z,101223.94
2024-02-27T04:07:05.486Z,101222.50
2024-02-27T04:09:52.712Z,101232.66
2024-02-27T04:12:39.976Z,101243.66
2024-02-27T04:15:27.500Z,101246.66
2024-02-27T04:18:14.825Z,101246.94
2024-02-27T04:21:02.254Z,101250.72
2024-02-27T04:23:49.616Z,101254.56
2024-02-27T04:26:36.925Z,101258.44
2024-02-27T04:29:24.560Z,101253.50
2024-02-27T04:32:11.909Z,101257.09
2024-02-27T04:34:59.165Z,101260.88
2024-02-27T04:37:46.388Z,101263.88
2024-02-27T04:40:33.592Z,101265.81
2024-02-27T04:43:22.109Z,101260.66
2024-02-27T04:46:09.315Z,101249.44
2024-02-27T04:48:56.507Z,101267.41
2024-02-27T04:51:43.944Z,101268.41
2024-02-27T04:54:31.126Z,101265.78
2024-02-27T04:57:19.133Z,101262.59
2024-02-27T05:00:11.234Z,101277.09
2024-02-27T05:02:58.734Z,101277.16
2024-02-27T05:05:45.906Z,101288.09
2024-02-27T05:08:33.040Z,101291.72
2024-02-27T05:11:20.401Z,101292.66
2024-02-27T05:14:07.761Z,101295.47
2024-02-27T05:16:55.291Z,101295.47
2024-02-27T05:19:42.493Z,101295.63
2024-02-27T05:22:29.708Z,101303.75
2024-02-27T05:25:16.964Z,101311.84
2024-02-27T05:28:04.583Z,101308.34
2024-02-27T05:30:55.354Z,101320.00
2024-02-27T05:33:42.715Z,101329.94
2024-02-27T05:36:30.274Z,101315.84
2024-02-27T05:39:17.996Z,101322.25
2024-02-27T05:42:05.365Z,101328.63
2024-02-27T05:44:52.560Z,101329.75
2024-02-27T05:47:39.873Z,101338.59
2024-02-27T05:50:27.228Z,101338.66
2024-02-27T05:53:14.424Z,101337.84
2024-02-27T05:56:02.014Z,101335.34
2024-02-27T05:58:49.596Z,101348.66
2024-02-27T06:01:37.299Z,101359.44
2024-02-27T06:04:24.559Z,101359.44
2024-02-27T06:07:12.977Z,101367.53
2024-02-27T06:10:00.245Z,101368.50
2024-02-27T06:12:47.466Z,101377.47
2024-02-27T06:15:35.290Z,101370.38
2024-02-27T06:18:22.679Z,101374.00
2024-02-27T06:21:29.277Z,101369.69
2024-02-27T06:24:16.551Z,101377.63
2024-02-27T06:27:04.288Z,101387.50
2024-02-27T06:29:51.538Z,101394.63
2024-02-27T06:32:38.797Z,101392.88
2024-02-27T06:35:27.117Z,101396.50
2024-02-27T06:38:14.430Z,101397.19
2024-02-27T06:41:01.887Z,101402.69
2024-02-27T06:43:49.324Z,101409.59
2024-02-27T06:46:36.494Z,101411.41
2024-02-27T06:49:24.158Z,101417.63
2024-02-27T06:52:11.458Z,101409.44
2024-02-27T06:54:58.899Z,101409.44
2024-02-27T06:57:46.850Z,101410.31
2024-02-27T07:00:34.957Z,101406.56
2024-02-27T07:03:22.378Z,101403.81
2024-02-27T07:06:09.676Z,101415.41
2024-02-27T07:08:59.541Z,101403.94
2024-02-27T07:11:46.883Z,101406.38
2024-02-27T07:14:34.566Z,101396.69
2024-02-27T07:17:24.221Z,101405.44
2024-02-27T07:20:12.359Z,101414.28
2024-02-27T07:23:00.778Z,101406.38
2024-02-27T07:25:48.061Z,101407.03
2024-02-27T07:28:35.274Z,101395.34
2024-02-27T07:31:23.299Z,101409.78
2024-02-27T07:34:12.717Z,101413.19
2024-02-27T07:37:01.364Z,101416.63
2024-02-27T07:39:49.941Z,101417.28
2024-02-27T07:42:37.755Z,101429.56
2024-02-27T07:45:25.167Z,101432.06
2024-02-27T07:48:12.541Z,101417.72
2024-02-27T07:50:59.816Z,101428.03
2024-02-27T07:53:47.295Z,101424.47
2024-02-27T07:56:34.551Z,101436.50
2024-02-27T07:59:21.763Z,101436.22
2024-02-27T08:02:08.953Z,101433.25
2024-02-27T08:04:56.110Z,101430.38
2024-02-27T08:07:43.374Z,101435.38
2024-02-27T08:10:30.736Z,101436.00
2024-02-27T08:13:20.620Z,101445.50
2024-02-27T08:16:10.089Z,101437.22
2024-02-27T08:18:57.415Z,101443.88
2024-02-27T08:21:44.784Z,101444.31
2024-02-27T08:24:34.292Z,101452.72
2024-02-27T08:27:21.635Z,101463.72
2024-02-27T08:30:09.616Z,101465.81
2024-02-27T08:32:58.847Z,101453.16
2024-02-27T08:35:46.244Z,101461.59
2024-02-27T08:38:34.100Z,101472.19
2024-02-27T08:41:22.791Z,101478.25
2024-02-27T08:44:10.083Z,101482.50
2024-02-27T08:47:00.285Z,101478.84
2024-02-27T08:49:47.695Z,101478.25
2024-02-27T08:52:35.059Z,101484.16
2024-02-27T08:55:26.171Z,101480.50
2024-02-27T08:58:13.429Z,101492.63
2024-02-27T09:01:00.727Z,101499.75
2024-02-27T09:03:50.156Z,101497.94
2024-02-27T09:06:44.405Z,101505.03
2024-02-27T09:09:31.673Z,101509.41
2024-02-27T09:12:19.061Z,101516.03
2024-02-27T09:15:09.009Z,101514.25
2024-02-27T09:17:56.533Z,101510.53
2024-02-27T09:20:44.736Z,101506.22
2024-02-27T09:23:32.008Z,101503.69
2024-02-27T09:26:19.222Z,101512.06
2024-02-27T09:29:06.387Z,101507.94
2024-02-27T09:31:53.592Z,101511.06
2024-02-27T09:34:42.379Z,101518.66
2024-02-27T09:37:29.706Z,101507.09
2024-02-27T09:40:17.294Z,101515.38
2024-02-27T09:43:15.126Z,101516.66
2024-02-27T09:46:06.086Z,101514.19
2024-02-27T09:48:56.889Z,101510.00
2024-02-27T09:51:47.462Z,101514.59
2024-02-27T09:54:37.431Z,101524.41
2024-02-27T09:57:27.369Z,101521.06
2024-02-27T10:00:18.412Z,101514.53
2024-02-27T10:03:09.109Z,101512.41
2024-02-27T10:05:57.986Z,101512.47
2024-02-27T10:08:57.105Z,101507.94
2024-02-27T10:11:45.379Z,101512.47
2024-02-27T10:14:37.404Z,101516.75
2024-02-27T10:17:25.125Z,101515.63
2024-02-27T10:20:12.623Z,101520.19
2024-02-27T10:23:00.272Z,101513.22
2024-02-27T10:25:47.528Z,101524.09
2024-02-27T10:28:35.816Z,101532.25
2024-02-27T10:31:23.077Z,101530.09
2024-02-27T10:34:10.472Z,101522.59
2024-02-27T10:37:00.988Z,101533.78
2024-02-27T10:39:48.590Z,101523.97
2024-02-27T10:42:38.662Z,101538.03
2024-02-27T10:45:26.313Z,101533.56
2024-02-27T10:48:14.557Z,101548.22
2024-02-27T10:51:03.716Z,101550.63
2024-02-27T10:53:54.112Z,101541.69
2024-02-27T10:56:41.956Z,101547.47
2024-02-27T10:59:32.907Z,101549.22
2024-02-27T11:02:21.496Z,101541.41
2024-02-27T11:05:12.467Z,101547.00
2024-02-27T11:08:01.426Z,101554.41
2024-02-27T11:10:49.364Z,101550.00
2024-02-27T11:13:42.675Z,101540.69
2024-02-27T11:16:32.224Z,101530.88
2024-02-27T11:19:26.081Z,101534.59
2024-02-27T11:22:14.004Z,101540.53
2024-02-27T11:25:01.611Z,101536.13
2024-02-27T11:27:51.876Z,101540.88
2024-02-27T11:30:41.794Z,101542.91
2024-02-27T11:33:29.040Z,101531.44
2024-02-27T11:36:16.412Z,101532.94
2024-02-27T11:39:03.753Z,101534.66
2024-02-27T11:41:52.883Z,101544.56
2024-02-27T11:45:10.256Z,101545.63
2024-02-27T11:47:57.586Z,101526.84
2024-02-27T11:50:46.769Z,101527.53
2024-02-27T11:53:34.782Z,101518.75
2024-02-27T11:56:24.373Z,101525.66
2024-02-27T11:59:12.998Z,101518.47
2024-02-27T12:02:05.417Z,101514.69
2024-02-27T12:04:54.953Z,101512.19
2024-02-27T12:07:42.323Z,101500.03
2024-02-27T12:10:30.033Z,101493.00
2024-02-27T12:13:17.833Z,101487.19
2024-02-27T12:16:06.185Z,101494.34
2024-02-27T12:18:55.532Z,101484.66
2024-02-27T12:21:43.349Z,101492.84
2024-02-27T12:24:30.591Z,101491.16
2024-02-27T12:27:18.008Z,101479.91
2024-02-27T12:30:14.314Z,101481.41
2024-02-27T12:33:02.718Z,101477.84
2024-02-27T12:35:49.865Z,101475.41
2024-02-27T12:38:38.131Z,101469.88
2024-02-27T12:41:26.388Z,101470.44
2024-02-27T12:44:14.879Z,101476.41
2024-02-27T12:47:02.166Z,101471.13
2024-02-27T12:49:49.592Z,101474.94
2024-02-27T12:52:38.403Z,101478.94
2024-02-27T12:55:26.956Z,101478.91
2024-02-27T12:58:24.769Z,101474.66
2024-02-27T13:01:12.822Z,101477.09
2024-02-27T13:04:00.232Z,101474.28
2024-02-27T13:06:47.707Z,101463.31
2024-02-27T13:09:35.133Z,101473.56
2024-02-27T13:12:22.449Z,101475.19
2024-02-27T13:15:09.888Z,101465.97
2024-02-27T13:17:57.121Z,101464.78
2024-02-27T13:20:46.820Z,101459.19
2024-02-27T13:23:34.215Z,101461.84
2024-02-27T13:26:22.195Z,101446.69
2024-02-27T13:29:09.342Z,101444.44
2024-02-27T13:31:56.673Z,101450.50
2024-02-27T13:34:47.101Z,101457.09
2024-02-27T13:37:36.144Z,101462.22
2024-02-27T13:40:23.495Z,101464.94
2024-02-27T13:43:11.491Z,101460.16
2024-02-27T13:46:00.564Z,101450.31
2024-02-27T13:48:49.791Z,101462.09
2024-02-27T13:51:41.978Z,101455.78
2024-02-27T13:54:29.504Z,101451.81
2024-02-27T13:57:16.777Z,101458.00
2024-02-27T14:00:06.206Z,101460.75
2024-02-27T14:02:59.763Z,101452.47
2024-02-27T14:05:47.147Z,101459.19
2024-02-27T14:08:35.320Z,101449.72
2024-02-27T14:11:23.061Z,101448.72
2024-02-27T14:14:17.351Z,101443.88
2024-02-27T14:17:08.516Z,101442.81
2024-02-27T14:19:55.871Z,101446.91
2024-02-27T14:22:43.170Z,101446.63
2024-02-27T14:25:30.358Z,101449.78
2024-02-27T14:28:17.683Z,101445.28
2024-02-27T14:31:04.954Z,101434.28
2024-02-27T14:33:52.221Z,101438.56
2024-02-27T14:36:39.578Z,101445.22
2024-02-27T14:39:27.192Z,101454.22
2024-02-27T14:42:14.553Z,101451.81
2024-02-27T14:45:02.951Z,101441.84
2024-02-27T14:47:50.314Z,101450.47
2024-02-27T14:50:37.522Z,101457.69
2024-02-27T14:53:24.694Z,101456.31
2024-02-27T14:56:11.980Z,101453.91
2024-02-27T14:58:59.273Z,101453.91
2024-02-27T15:01:53.832Z,101460.09
2024-02-27T15:04:47.384Z,101460.06
2024-02-27T15:07:34.844Z,101451.50
2024-02-27T15:10:22.094Z,101447.84
2024-02-27T15:13:10.770Z,101452.13
2024-02-27T15:15:58.183Z,101446.22
2024-02-27T15:18:45.532Z,101450.16
2024-02-27T15:21:33.296Z,101450.56
2024-02-27T15:24:20.670Z,101460.66
2024-02-27T15:27:08.081Z,101457.00
2024-02-27T15:29:56.860Z,101448.84
2024-02-27T15:32:44.171Z,101448.28
2024-02-27T15:35:31.414Z,101454.00
2024-02-27T15:38:18.662Z,101444.34
2024-02-27T15:41:05.967Z,101447.25
2024-02-27T15:43:54.919Z,101442.50
2024-02-27T15:46:43.329Z,101431.09
2024-02-27T15:49:31.072Z,101432.91
2024-02-27T15:52:19.098Z,101444.47
2024-02-27T15:55:06.470Z,101443.38
2024-02-27T15:57:53.840Z,101446.84
2024-02-27T16:00:41.311Z,101440.06
2024-02-27T16:03:52.333Z,101436.34
2024-02-27T16:07:08.483Z,101435.34
2024-02-27T16:09:55.748Z,101450.59
2024-02-27T16:12:45.087Z,101439.38
2024-02-27T16:15:32.487Z,101441.09
2024-02-27T16:18:19.881Z,101438.50
2024-02-27T16:21:19.840Z,101437.28
2024-02-27T16:24:09.295Z,101446.53
2024-02-27T16:26:58.220Z,101439.69
2024-02-27T16:29:45.558Z,101433.03
2024-02-27T16:32:32.750Z,101436.78
2024-02-27T16:35:20.051Z,101441.25
2024-02-27T16:38:07.258Z,101437.66
2024-02-27T16:40:54.566Z,101426.59
2024-02-27T16:43:41.836Z,101439.50
2024-02-27T16:46:29.801Z,101435.53
2024-02-27T16:49:17.209Z,101440.78
2024-02-27T16:52:04.850Z,101445.97
2024-02-27T16:54:52.495Z,101447.31
2024-02-27T16:57:39.870Z,101450.13
2024-02-27T17:00:27.309Z,101437.84
2024-02-27T17:03:14.656Z,101449.38
2024-02-27T17:06:04.432Z,101449.78
2024-02-27T17:08:51.813Z,101444.34
2024-02-27T17:11:39.185Z,101451.66
2024-02-27T17:14:26.441Z,101457.88
2024-02-27T17:17:14.636Z,101458.63
2024-02-27T17:20:02.138Z,101460.72
2024-02-27T17:22:49.298Z,101460.97
2024-02-27T17:25:36.651Z,101460.22
2024-02-27T17:28:23.853Z,101464.63
2024-02-27T17:31:11.086Z,101468.28
2024-02-27T17:33:59.485Z,101471.97
2024-02-27T17:36:47.064Z,101474.63
2024-02-27T17:39:34.380Z,101478.84
2024-02-27T17:42:23.159Z,101487.78
2024-02-27T17:45:11.125Z,101488.41
2024-02-27T17:47:58.500Z,101485.72
2024-02-27T17:50:45.761Z,101483.97
2024-02-27T17:53:33.035Z,101485.38
2024-02-27T17:56:20.603Z,101485.19
2024-02-27T17:59:07.866Z,101494.06
2024-02-27T18:01:55.145Z,101501.88
2024-02-27T18:04:42.887Z,101485.69
2024-02-27T18:07:30.412Z,101496.66
2024-02-27T18:10:20.561Z,101497.84
2024-02-27T18:13:07.853Z,101491.19
2024-02-27T18:15:55.111Z,101504.75
2024-02-27T18:18:43.837Z,101502.31
2024-02-27T18:21:31.131Z,101505.44
2024-02-27T18:24:18.686Z,101524.31
2024-02-27T18:27:06.508Z,101527.16
2024-02-27T18:29:53.829Z,101523.66
2024-02-27T18:32:41.908Z,101527.31
2024-02-27T18:35:31.434Z,101525.72
2024-02-27T18:38:21.023Z,101521.69
2024-02-27T18:41:08.482Z,101531.59
2024-02-27T18:43:55.773Z,101531.81
2024-02-27T18:46:43.056Z,101535.56
2024-02-27T18:49:30.408Z,101542.53
2024-02-27T18:52:19.143Z,101551.72
2024-02-27T18:55:06.580Z,101548.25
2024-02-27T18:57:53.869Z,101557.44
2024-02-27T19:00:41.489Z,101566.47
2024-02-27T19:03:28.866Z,101566.59
2024-02-27T19:06:16.195Z,101563.19
2024-02-27T19:09:03.752Z,101568.75
2024-02-27T19:11:51.561Z,101563.75
2024-02-27T19:14:39.043Z,101573.00
2024-02-27T19:17:26.518Z,101581.25
2024-02-27T19:20:13.774Z,101582.34
2024-02-27T19:23:01.040Z,101582.56
2024-02-27T19:25:48.252Z,101580.25
2024-02-27T19:28:40.725Z,101582.50
2024-02-27T19:31:31.541Z,101583.56
2024-02-27T19:34:18.819Z,101580.16
2024-02-27T19:37:05.992Z,101590.19
2024-02-27T19:39:53.581Z,101596.66
2024-02-27T19:42:40.912Z,101597.69
2024-02-27T19:45:28.276Z,101603.94
2024-02-27T19:48:16.617Z,101607.56
2024-02-27T19:51:04.294Z,101607.72
2024-02-27T19:53:53.841Z,101616.72
2024-02-27T19:56:42.217Z,101615.88
2024-02-27T19:59:29.778Z,101617.75
2024-02-27T20:02:17.004Z,101622.41
2024-02-27T20:05:04.658Z,101615.28
2024-02-27T20:07:54.961Z,101615.28
2024-02-27T20:10:42.239Z,101609.22
2024-02-27T20:13:29.406Z,101611.41
2024-02-27T20:16:18.241Z,101616.00
2024-02-27T20:19:06.194Z,101611.84
2024-02-27T20:21:57.401Z,101613.84
2024-02-27T20:24:45.445Z,101609.69
2024-02-27T20:27:32.794Z,101613.34
2024-02-27T20:30:24.687Z,101621.59
2024-02-27T20:33:14.074Z,101612.75
2024-02-27T20:36:02.139Z,101609.31
2024-02-27T20:38:49.336Z,101609.53
2024-02-27T20:41:36.668Z,101608.81
2024-02-27T20:44:24.951Z,101609.78
2024-02-27T20:47:12.201Z,101614.50
2024-02-27T20:49:59.392Z,101616.31
2024-02-27T20:52:46.566Z,101616.31
2024-02-27T20:55:36.325Z,101618.19
2024-02-27T20:58:23.544Z,101620.09
2024-02-27T21:01:10.790Z,101611.22
2024-02-27T21:03:58.153Z,101615.69
2024-02-27T21:06:45.575Z,101612.34
2024-02-27T21:09:33.056Z,101620.59
2024-02-27T21:12:20.500Z,101615.34
2024-02-27T21:15:09.350Z,101617.38
2024-02-27T21:17:56.633Z,101619.41
2024-02-27T21:20:44.534Z,101615.22
2024-02-27T21:23:31.771Z,101612.66
2024-02-27T21:26:18.958Z,101630.53
2024-02-27T21:29:06.303Z,101631.44
2024-02-27T21:31:53.589Z,101636.03
2024-02-27T21:34:41.406Z,101637.91
2024-02-27T21:37:30.377Z,101635.34
2024-02-27T21:40:18.518Z,101634.66
2024-02-27T21:43:05.700Z,101642.84
2024-02-27T21:45:52.991Z,101645.53
2024-02-27T21:48:40.159Z,101651.78
2024-02-27T21:51:28.644Z,101652.63
2024-02-27T21:54:16.207Z,101650.97
2024-02-27T21:57:03.501Z,101654.50
2024-02-27T21:59:50.696Z,101645.75
2024-02-27T22:02:38.900Z,101644.84
2024-02-27T22:05:26.063Z,101647.53
2024-02-27T22:08:13.275Z,101651.13
2024-02-27T22:11:00.446Z,101647.66
2024-02-27T22:13:47.624Z,101639.91
2024-02-27T22:16:35.852Z,101648.03
2024-02-27T22:19:23.121Z,101645.38
2024-02-27T22:22:10.336Z,101639.28
2024-02-27T22:24:57.528Z,101639.41
2024-02-27T22:27:44.784Z,101645.66
2024-02-27T22:30:31.984Z,101638.66
2024-02-27T22:33:19.343Z,101631.69
2024-02-27T22:36:07.478Z,101641.47
2024-02-27T22:38:54.592Z,101653.16
2024-02-27T22:41:41.884Z,101642.59
2024-02-27T22:44:29.085Z,101632.09
2024-02-27T22:47:16.245Z,101625.94
2024-02-27T22:50:04.160Z,101643.66
2024-02-27T22:52:51.755Z,101642.84
2024-02-27T22:55:39.456Z,101634.19
2024-02-27T22:58:26.808Z,101628.13
2024-02-27T23:01:14.070Z,101638.81
2024-02-27T23:04:01.242Z,101627.50
2024-02-27T23:06:48.429Z,101628.50
2024-02-27T23:09:35.750Z,101636.47
2024-02-27T23:12:23.098Z,101634.00
2024-02-27T23:15:10.592Z,101639.34
2024-02-27T23:17:57.834Z,101634.84
2024-02-27T23:20:47.170Z,101634.00
2024-02-27T23:23:34.464Z,101641.09
2024-02-27T23:26:21.747Z,101639.34
2024-02-27T23:29:09.500Z,101638.47
2024-02-27T23:31:56.672Z,101633.34
2024-02-27T23:34:43.918Z,101644.72
2024-02-27T23:37:31.284Z,101641.09
2024-02-27T23:40:19.115Z,101638.41
2024-02-27T23:43:06.340Z,101637.50
2024-02-27T23:45:54.678Z,101634.00
2024-02-27T23:48:42.048Z,101635.72
2024-02-27T23:51:29.558Z,101641.09
2024-02-27T23:54:16.772Z,101634.00
2024-02-27T23:57:06.045Z,101639.22
2024-02-27T23:59:53.905Z,101639.22
